Time,TemperatureF,DewpointF,PressureIn,WindDirection,WindDirectionDegrees,WindSpeedMPH,WindSpeedGustMPH,Humidity,HourlyPrecipIn,Conditions,Clouds,dailyrainin,SoftwareType,DateUTC
2013-04-01 00:03:00,50.5,46.2,29.91,WSW,250,2.0,2.0,85,0.00,,,0.00,Wunderground v.1.15,2013-04-01 05:03:00,
2013-04-01 00:09:00,50.5,46.2,29.91,WSW,256,1.0,2.0,85,0.00,,,0.00,Wunderground v.1.15,2013-04-01 05:09:00,
2013-04-01 00:15:00,50.5,46.2,29.91,WSW,255,1.0,2.0,85,0.00,,,0.00,Wunderground v.1.15,2013-04-01 05:15:00,
2013-04-01 00:21:00,50.5,46.2,29.91,West,263,2.0,3.0,85,0.00,,,0.00,Wunderground v.1.15,2013-04-01 05:21:00,
2013-04-01 00:27:00,50.5,46.2,29.91,WSW,250,1.0,3.0,85,0.00,,,0.00,Wunderground v.1.15,2013-04-01 05:27:00,
2013-04-01 00:32:00,50.5,46.2,29.91,West,259,1.0,1.0,85,0.00,,,0.00,Wunderground v.1.15,2013-04-01 05:32:00,
2013-04-01 00:37:00,50.4,46.4,29.91,WSW,253,0.0,1.0,86,0.00,,,0.00,Wunderground v.1.15,2013-04-01 05:37:00,
2013-04-01 00:42:00,50.1,46.1,29.91,West,262,2.0,2.0,86,0.00,,,0.00,Wunderground v.1.15,2013-04-01 05:42:00,
2013-04-01 00:48:00,50.0,46.3,29.91,WSW,238,0.0,2.0,87,0.00,,,0.00,Wunderground v.1.15,2013-04-01 05:48:00,
2013-04-01 00:54:00,50.0,46.3,29.92,WSW,249,1.0,1.0,87,0.00,,,0.00,Wunderground v.1.15,2013-04-01 05:54:00,
2013-04-01 01:00:00,50.0,46.3,29.92,WSW,252,0.0,1.0,87,0.00,,,0.00,Wunderground v.1.15,2013-04-01 06:00:00,
2013-04-01 01:06:00,50.0,46.3,29.92,WNW,287,0.0,2.0,87,0.00,,,0.00,Wunderground v.1.15,2013-04-01 06:06:00,
2013-04-01 01:12:00,50.0,46.6,29.92,West,264,0.0,0.0,88,0.00,,,0.00,Wunderground v.1.15,2013-04-01 06:12:00,
2013-04-01 01:17:00,49.9,46.5,29.92,West,270,0.0,1.0,88,0.00,,,0.00,Wunderground v.1.15,2013-04-01 06:17:00,
2013-04-01 01:22:00,49.7,46.3,29.92,West,270,0.0,0.0,88,0.00,,,0.00,Wunderground v.1.15,2013-04-01 06:22:00,
2013-04-01 01:27:00,49.3,45.9,29.92,West,270,0.0,0.0,88,0.00,,,0.00,Wunderground v.1.15,2013-04-01 06:27:00,
2013-04-01 01:32:00,48.8,45.7,29.92,West,270,0.0,0.0,89,0.00,,,0.00,Wunderground v.1.15,2013-04-01 06:32:00,
2013-04-01 01:38:00,47.6,44.8,29.92,NNE,19,0.0,1.0,90,0.00,,,0.00,Wunderground v.1.15,2013-04-01 06:38:00,
2013-04-01 01:43:00,47.3,44.8,29.92,NNE,19,0.0,0.0,91,0.00,,,0.00,Wunderground v.1.15,2013-04-01 06:43:00,
2013-04-01 01:49:00,46.7,44.2,29.93,NNE,19,0.0,0.0,91,0.00,,,0.00,Wunderground v.1.15,2013-04-01 06:49:00,
2013-04-01 01:55:00,46.5,44.6,29.93,NNE,19,0.0,0.0,93,0.00,,,0.00,Wunderground v.1.15,2013-04-01 06:55:00,
2013-04-01 02:00:00,46.3,44.4,29.93,NNE,19,0.0,0.0,93,0.00,,,0.00,Wunderground v.1.15,2013-04-01 07:00:00,
2013-04-01 02:05:00,46.3,44.4,29.93,NNE,19,0.0,0.0,93,0.00,,,0.00,Wunderground v.1.15,2013-04-01 07:05:00,
2013-04-01 02:10:00,46.5,44.9,29.93,NNE,19,0.0,0.0,94,0.00,,,0.00,Wunderground v.1.15,2013-04-01 07:10:00,
2013-04-01 02:15:00,46.5,44.9,29.93,NNE,19,0.0,0.0,94,0.00,,,0.00,Wunderground v.1.15,2013-04-01 07:15:00,
2013-04-01 02:20:00,46.4,44.8,29.93,NNE,19,0.0,0.0,94,0.00,,,0.00,Wunderground v.1.15,2013-04-01 07:20:00,
2013-04-01 02:25:00,46.1,44.5,29.93,NNE,19,0.0,0.0,94,0.00,,,0.00,Wunderground v.1.15,2013-04-01 07:25:00,
2013-04-01 02:30:00,45.8,44.2,29.93,NNE,19,0.0,0.0,94,0.00,,,0.00,Wunderground v.1.15,2013-04-01 07:30:00,
2013-04-01 02:35:00,45.8,44.4,29.93,NNE,19,0.0,0.0,95,0.00,,,0.00,Wunderground v.1.15,2013-04-01 07:35:00,
2013-04-01 02:40:00,45.9,44.5,29.92,NNE,19,0.0,0.0,95,0.00,,,0.00,Wunderground v.1.15,2013-04-01 07:40:00,
2013-04-01 02:45:00,45.7,44.4,29.92,SW,232,0.0,1.0,95,0.00,,,0.00,Wunderground v.1.15,2013-04-01 07:45:00,
2013-04-01 02:50:00,45.5,44.2,29.92,SW,224,0.0,0.0,95,0.00,,,0.00,Wunderground v.1.15,2013-04-01 07:50:00,
2013-04-01 02:55:00,45.1,43.8,29.92,SW,224,0.0,0.0,95,0.00,,,0.00,Wunderground v.1.15,2013-04-01 07:55:00,
2013-04-01 03:00:00,44.9,43.6,29.92,SW,224,0.0,0.0,95,0.00,,,0.00,Wunderground v.1.15,2013-04-01 08:00:00,
2013-04-01 03:05:00,44.5,43.2,29.93,SW,224,0.0,0.0,95,0.00,,,0.00,Wunderground v.1.15,2013-04-01 08:05:00,
2013-04-01 03:11:00,44.5,43.4,29.93,SW,224,0.0,0.0,96,0.00,,,0.00,Wunderground v.1.15,2013-04-01 08:11:00,
2013-04-01 03:16:00,44.4,43.3,29.93,SW,224,0.0,0.0,96,0.00,,,0.00,Wunderground v.1.15,2013-04-01 08:16:00,
2013-04-01 03:21:00,44.2,42.9,29.93,SW,223,0.0,0.0,95,0.00,,,0.00,Wunderground v.1.15,2013-04-01 08:21:00,
2013-04-01 03:26:00,43.7,42.4,29.93,SW,223,0.0,0.0,95,0.00,,,0.00,Wunderground v.1.15,2013-04-01 08:26:00,
2013-04-01 03:32:00,43.5,42.2,29.94,SW,224,0.0,0.0,95,0.00,,,0.00,Wunderground v.1.15,2013-04-01 08:32:00,
2013-04-01 03:37:00,43.5,42.4,29.94,SW,224,0.0,0.0,96,0.00,,,0.00,Wunderground v.1.15,2013-04-01 08:37:00,
2013-04-01 03:42:00,44.1,43.3,29.94,SE,146,0.0,0.0,97,0.00,,,0.00,Wunderground v.1.15,2013-04-01 08:42:00,
2013-04-01 03:47:00,44.3,43.5,29.94,SE,146,0.0,0.0,97,0.00,,,0.00,Wunderground v.1.15,2013-04-01 08:47:00,
2013-04-01 03:52:00,44.6,43.8,29.94,SE,145,0.0,0.0,97,0.00,,,0.00,Wunderground v.1.15,2013-04-01 08:52:00,
2013-04-01 03:57:00,44.2,43.1,29.94,SE,145,0.0,0.0,96,0.00,,,0.00,Wunderground v.1.15,2013-04-01 08:57:00,
2013-04-01 04:02:00,44.5,43.7,29.95,SE,145,0.0,0.0,97,0.00,,,0.00,Wunderground v.1.15,2013-04-01 09:02:00,
2013-04-01 04:07:00,44.6,43.8,29.95,SE,146,0.0,0.0,97,0.00,,,0.00,Wunderground v.1.15,2013-04-01 09:07:00,
2013-04-01 04:12:00,44.4,43.3,29.95,SE,146,0.0,0.0,96,0.00,,,0.00,Wunderground v.1.15,2013-04-01 09:12:00,
2013-04-01 04:17:00,44.7,43.9,29.96,SE,146,0.0,0.0,97,0.00,,,0.00,Wunderground v.1.15,2013-04-01 09:17:00,
2013-04-01 04:22:00,44.9,44.1,29.95,SE,145,0.0,0.0,97,0.00,,,0.00,Wunderground v.1.15,2013-04-01 09:22:00,
2013-04-01 04:27:00,45.0,44.2,29.96,NE,36,1.0,3.0,97,0.00,,,0.00,Wunderground v.1.15,2013-04-01 09:27:00,
2013-04-01 04:32:00,45.1,44.3,29.96,ENE,62,1.0,2.0,97,0.00,,,0.00,Wunderground v.1.15,2013-04-01 09:32:00,
2013-04-01 04:37:00,45.4,44.6,29.97,NE,52,4.0,7.0,97,0.00,,,0.00,Wunderground v.1.15,2013-04-01 09:37:00,
2013-04-01 04:42:00,45.7,44.4,29.97,NE,49,2.0,5.0,95,0.00,,,0.00,Wunderground v.1.15,2013-04-01 09:42:00,
2013-04-01 04:47:00,46.3,44.1,29.98,NE,44,4.0,8.0,92,0.00,,,0.00,Wunderground v.1.15,2013-04-01 09:47:00,
2013-04-01 04:52:00,47.0,43.3,29.98,NE,44,4.0,11.0,87,0.00,,,0.00,Wunderground v.1.15,2013-04-01 09:52:00,
2013-04-01 04:57:00,47.3,42.4,29.98,NE,49,8.0,11.0,83,0.00,,,0.00,Wunderground v.1.15,2013-04-01 09:57:00,
2013-04-01 05:03:00,47.4,41.5,29.98,NE,39,9.0,9.0,80,0.00,,,0.00,Wunderground v.1.15,2013-04-01 10:03:00,
2013-04-01 05:08:00,47.2,41.0,29.99,NE,36,4.0,11.0,79,0.00,,,0.00,Wunderground v.1.15,2013-04-01 10:08:00,
2013-04-01 05:13:00,46.9,40.7,29.99,NE,44,10.0,11.0,79,0.00,,,0.00,Wunderground v.1.15,2013-04-01 10:13:00,
2013-04-01 05:18:00,46.7,40.5,29.99,NE,41,6.0,11.0,79,0.00,,,0.00,Wunderground v.1.15,2013-04-01 10:18:00,
2013-04-01 05:23:00,46.5,40.3,30.00,ENE,60,4.0,9.0,79,0.00,,,0.00,Wunderground v.1.15,2013-04-01 10:23:00,
2013-04-01 05:28:00,46.3,39.8,30.00,NE,38,5.0,9.0,78,0.00,,,0.00,Wunderground v.1.15,2013-04-01 10:28:00,
2013-04-01 05:33:00,46.3,39.5,30.00,East,90,3.0,9.0,77,0.00,,,0.00,Wunderground v.1.15,2013-04-01 10:33:00,
2013-04-01 05:38:00,46.1,39.0,30.01,NE,39,6.0,10.0,76,0.00,,,0.00,Wunderground v.1.15,2013-04-01 10:38:00,
2013-04-01 05:43:00,46.0,38.9,30.01,NE,44,9.0,9.0,76,0.00,,,0.00,Wunderground v.1.15,2013-04-01 10:43:00,
2013-04-01 05:48:00,45.9,38.4,30.01,ENE,58,7.0,11.0,75,0.00,,,0.00,Wunderground v.1.15,2013-04-01 10:48:00,
2013-04-01 05:53:00,45.9,37.7,30.02,SE,125,8.0,12.0,73,0.00,,,0.00,Wunderground v.1.15,2013-04-01 10:53:00,
2013-04-01 05:58:00,45.7,37.5,30.02,NE,53,6.0,12.0,73,0.00,,,0.00,Wunderground v.1.15,2013-04-01 10:58:00,
2013-04-01 06:03:00,45.4,37.2,30.02,ENE,62,6.0,11.0,73,0.00,,,0.00,Wunderground v.1.15,2013-04-01 11:03:00,
2013-04-01 06:08:00,45.2,37.1,30.03,NE,46,7.0,11.0,73,0.00,,,0.00,Wunderground v.1.15,2013-04-01 11:08:00,
2013-04-01 06:13:00,45.1,37.3,30.03,NE,46,4.0,10.0,74,0.00,,,0.00,Wunderground v.1.15,2013-04-01 11:13:00,
2013-04-01 06:18:00,44.9,36.8,30.03,NE,34,5.0,12.0,73,0.00,,,0.00,Wunderground v.1.15,2013-04-01 11:18:00,
2013-04-01 06:23:00,44.6,37.2,30.04,NNE,23,3.0,7.0,75,0.00,,,0.00,Wunderground v.1.15,2013-04-01 11:23:00,
2013-04-01 06:28:00,44.3,36.9,30.04,NE,46,7.0,7.0,75,0.00,,,0.00,Wunderground v.1.15,2013-04-01 11:28:00,
2013-04-01 06:33:00,44.1,36.7,30.04,NE,38,3.0,5.0,75,0.00,,,0.00,Wunderground v.1.15,2013-04-01 11:33:00,
2013-04-01 06:38:00,43.9,36.1,30.05,ENE,68,7.0,9.0,74,0.00,,,0.00,Wunderground v.1.15,2013-04-01 11:38:00,
2013-04-01 06:43:00,43.9,35.8,30.05,NE,50,7.0,8.0,73,0.00,,,0.00,Wunderground v.1.15,2013-04-01 11:43:00,
2013-04-01 06:48:00,43.9,35.1,30.05,NNE,33,3.0,15.0,71,0.00,,,0.00,Wunderground v.1.15,2013-04-01 11:48:00,
2013-04-01 06:53:00,43.6,34.8,30.05,NE,49,5.0,10.0,71,0.00,,,0.00,Wunderground v.1.15,2013-04-01 11:53:00,
2013-04-01 06:58:00,43.5,34.7,30.05,NE,43,4.0,11.0,71,0.00,,,0.00,Wunderground v.1.15,2013-04-01 11:58:00,
2013-04-01 07:03:00,43.3,34.9,30.06,NE,51,3.0,8.0,72,0.00,,,0.00,Wunderground v.1.15,2013-04-01 12:03:00,
2013-04-01 07:08:00,43.1,34.7,30.06,NE,47,5.0,8.0,72,0.00,,,0.00,Wunderground v.1.15,2013-04-01 12:08:00,
2013-04-01 07:13:00,43.1,34.3,30.07,North,4,4.0,10.0,71,0.00,,,0.00,Wunderground v.1.15,2013-04-01 12:13:00,
2013-04-01 07:18:00,43.1,34.0,30.07,ENE,70,4.0,11.0,70,0.00,,,0.00,Wunderground v.1.15,2013-04-01 12:18:00,
2013-04-01 07:23:00,43.3,33.8,30.08,NNE,27,4.0,9.0,69,0.00,,,0.00,Wunderground v.1.15,2013-04-01 12:23:00,
2013-04-01 07:28:00,43.5,33.6,30.08,NE,54,3.0,9.0,68,0.00,,,0.00,Wunderground v.1.15,2013-04-01 12:28:00,
2013-04-01 07:33:00,43.6,33.7,30.07,ENE,77,2.0,9.0,68,0.00,,,0.00,Wunderground v.1.15,2013-04-01 12:33:00,
2013-04-01 07:38:00,43.7,33.5,30.08,NE,43,7.0,10.0,67,0.00,,,0.00,Wunderground v.1.15,2013-04-01 12:38:00,
2013-04-01 07:43:00,43.9,33.3,30.08,NE,49,6.0,11.0,66,0.00,,,0.00,Wunderground v.1.15,2013-04-01 12:43:00,
2013-04-01 07:48:00,44.0,33.0,30.08,NE,46,1.0,11.0,65,0.00,,,0.00,Wunderground v.1.15,2013-04-01 12:48:00,
2013-04-01 07:54:00,44.3,33.3,30.09,NE,41,2.0,10.0,65,0.00,,,0.00,Wunderground v.1.15,2013-04-01 12:54:00,
2013-04-01 07:59:00,44.4,33.7,30.09,NE,51,4.0,10.0,66,0.00,,,0.00,Wunderground v.1.15,2013-04-01 12:59:00,
2013-04-01 08:04:00,44.6,34.3,30.09,NE,54,7.0,7.0,67,0.00,,,0.00,Wunderground v.1.15,2013-04-01 13:04:00,
2013-04-01 08:09:00,44.7,32.9,30.09,NE,46,6.0,10.0,63,0.00,,,0.00,Wunderground v.1.15,2013-04-01 13:09:00,
2013-04-01 08:14:00,44.8,33.0,30.09,ENE,76,6.0,11.0,63,0.00,,,0.00,Wunderground v.1.15,2013-04-01 13:14:00,
2013-04-01 08:19:00,45.0,32.8,30.10,North,11,8.0,11.0,62,0.00,,,0.00,Wunderground v.1.15,2013-04-01 13:19:00,
2013-04-01 08:24:00,45.2,33.3,30.10,ENE,64,6.0,8.0,63,0.00,,,0.00,Wunderground v.1.15,2013-04-01 13:24:00,
2013-04-01 08:29:00,45.8,34.3,30.10,NNE,18,5.0,8.0,64,0.00,,,0.00,Wunderground v.1.15,2013-04-01 13:29:00,
2013-04-01 08:34:00,45.4,32.7,30.10,NNE,26,3.0,12.0,61,0.00,,,0.00,Wunderground v.1.15,2013-04-01 13:34:00,
2013-04-01 08:39:00,45.0,33.2,30.10,NNE,29,6.0,12.0,63,0.00,,,0.00,Wunderground v.1.15,2013-04-01 13:39:00,
2013-04-01 08:44:00,45.2,32.9,30.11,NE,48,4.0,11.0,62,0.00,,,0.00,Wunderground v.1.15,2013-04-01 13:44:00,
2013-04-01 08:49:00,45.9,32.4,30.11,NNE,29,10.0,11.0,59,0.00,,,0.00,Wunderground v.1.15,2013-04-01 13:49:00,
2013-04-01 08:54:00,45.7,33.0,30.11,NE,49,3.0,14.0,61,0.00,,,0.00,Wunderground v.1.15,2013-04-01 13:54:00,
2013-04-01 08:59:00,46.1,33.0,30.11,NE,49,15.0,15.0,60,0.00,,,0.00,Wunderground v.1.15,2013-04-01 13:59:00,
2013-04-01 09:04:00,45.7,32.2,30.11,NE,35,6.0,12.0,59,0.00,,,0.00,Wunderground v.1.15,2013-04-01 14:04:00,
2013-04-01 09:09:00,45.4,32.3,30.12,NE,47,7.0,12.0,60,0.00,,,0.00,Wunderground v.1.15,2013-04-01 14:09:00,
2013-04-01 09:14:00,45.2,32.1,30.12,NE,49,6.0,11.0,60,0.00,,,0.00,Wunderground v.1.15,2013-04-01 14:14:00,
2013-04-01 09:19:00,45.4,32.7,30.12,NE,36,11.0,11.0,61,0.00,,,0.00,Wunderground v.1.15,2013-04-01 14:19:00,
2013-04-01 09:24:00,45.7,33.0,30.12,NE,54,6.0,13.0,61,0.00,,,0.00,Wunderground v.1.15,2013-04-01 14:24:00,
2013-04-01 09:30:00,46.1,34.2,30.12,NW,326,2.0,13.0,63,0.00,,,0.00,Wunderground v.1.15,2013-04-01 14:30:00,
2013-04-01 09:35:00,46.4,33.7,30.12,NE,50,6.0,11.0,61,0.00,,,0.00,Wunderground v.1.15,2013-04-01 14:35:00,
2013-04-01 09:40:00,46.5,33.8,30.12,ENE,68,6.0,11.0,61,0.00,,,0.00,Wunderground v.1.15,2013-04-01 14:40:00,
2013-04-01 09:45:00,46.7,34.0,30.13,NE,40,5.0,11.0,61,0.00,,,0.00,Wunderground v.1.15,2013-04-01 14:45:00,
2013-04-01 09:50:00,46.7,33.1,30.12,NE,49,8.0,11.0,59,0.00,,,0.00,Wunderground v.1.15,2013-04-01 14:50:00,
2013-04-01 09:55:00,46.9,34.6,30.13,NE,46,8.0,11.0,62,0.00,,,0.00,Wunderground v.1.15,2013-04-01 14:55:00,
2013-04-01 10:00:00,46.8,34.5,30.13,ESE,117,4.0,15.0,62,0.00,,,0.00,Wunderground v.1.15,2013-04-01 15:00:00,
2013-04-01 10:05:00,46.9,33.7,30.13,ENE,60,10.0,13.0,60,0.00,,,0.00,Wunderground v.1.15,2013-04-01 15:05:00,
2013-04-01 10:10:00,46.8,33.6,30.13,NE,34,7.0,13.0,60,0.00,,,0.00,Wunderground v.1.15,2013-04-01 15:10:00,
2013-04-01 10:15:00,47.1,35.9,30.13,NE,50,6.0,10.0,65,0.00,,,0.00,Wunderground v.1.15,2013-04-01 15:15:00,
2013-04-01 10:20:00,47.5,34.7,30.14,NE,39,4.0,10.0,61,0.00,,,0.00,Wunderground v.1.15,2013-04-01 15:20:00,
2013-04-01 10:25:00,47.9,34.7,30.14,ENE,76,9.0,12.0,60,0.00,,,0.00,Wunderground v.1.15,2013-04-01 15:25:00,
2013-04-01 10:30:00,47.7,34.9,30.13,NE,55,7.0,7.0,61,0.00,,,0.00,Wunderground v.1.15,2013-04-01 15:30:00,
2013-04-01 10:35:00,47.6,34.8,30.14,NNW,345,3.0,11.0,61,0.00,,,0.00,Wunderground v.1.15,2013-04-01 15:35:00,
2013-04-01 10:40:00,48.0,35.2,30.14,NNW,338,3.0,6.0,61,0.00,,,0.00,Wunderground v.1.15,2013-04-01 15:40:00,
2013-04-01 10:45:00,48.6,35.7,30.14,ESE,115,4.0,10.0,61,0.00,,,0.00,Wunderground v.1.15,2013-04-01 15:45:00,
2013-04-01 10:50:00,48.4,34.7,30.14,NE,49,8.0,8.0,59,0.00,,,0.00,Wunderground v.1.15,2013-04-01 15:50:00,
2013-04-01 10:55:00,48.5,36.1,30.14,NNE,29,6.0,9.0,62,0.00,,,0.00,Wunderground v.1.15,2013-04-01 15:55:00,
2013-04-01 11:00:00,48.8,35.1,30.14,NE,46,6.0,7.0,59,0.00,,,0.00,Wunderground v.1.15,2013-04-01 16:00:00,
2013-04-01 11:05:00,49.4,36.1,30.14,NW,319,3.0,9.0,60,0.00,,,0.00,Wunderground v.1.15,2013-04-01 16:05:00,
2013-04-01 11:10:00,49.6,35.8,30.15,NW,323,2.0,5.0,59,0.00,,,0.00,Wunderground v.1.15,2013-04-01 16:10:00,
2013-04-01 11:15:00,50.0,35.8,30.15,ESE,122,3.0,7.0,58,0.00,,,0.00,Wunderground v.1.15,2013-04-01 16:15:00,
2013-04-01 11:20:00,49.9,36.6,30.15,NE,51,11.0,11.0,60,0.00,,,0.00,Wunderground v.1.15,2013-04-01 16:20:00,
2013-04-01 11:25:00,49.9,36.1,30.14,ENE,63,6.0,12.0,59,0.00,,,0.00,Wunderground v.1.15,2013-04-01 16:25:00,
2013-04-01 11:30:00,50.0,35.8,30.14,ENE,58,4.0,7.0,58,0.00,,,0.00,Wunderground v.1.15,2013-04-01 16:30:00,
2013-04-01 11:35:00,50.0,35.8,30.15,NE,41,7.0,9.0,58,0.00,,,0.00,Wunderground v.1.15,2013-04-01 16:35:00,
2013-04-01 11:40:00,50.0,36.2,30.15,NE,50,3.0,7.0,59,0.00,,,0.00,Wunderground v.1.15,2013-04-01 16:40:00,
2013-04-01 11:46:00,50.0,35.8,30.15,NE,37,8.0,10.0,58,0.00,,,0.00,Wunderground v.1.15,2013-04-01 16:46:00,
2013-04-01 11:51:00,50.2,36.0,30.14,NW,316,3.0,5.0,58,0.00,,,0.00,Wunderground v.1.15,2013-04-01 16:51:00,
2013-04-01 11:55:00,50.4,36.2,30.14,NNW,328,2.0,12.0,58,0.00,,,0.00,Wunderground v.1.15,2013-04-01 16:55:00,
2013-04-01 12:01:00,50.7,37.7,30.14,NE,44,3.0,8.0,61,0.00,,,0.00,Wunderground v.1.15,2013-04-01 17:01:00,
2013-04-01 12:06:00,51.4,37.5,30.14,NE,49,6.0,8.0,59,0.00,,,0.00,Wunderground v.1.15,2013-04-01 17:06:00,
2013-04-01 12:12:00,51.4,36.2,30.14,ENE,69,4.0,8.0,56,0.00,,,0.00,Wunderground v.1.15,2013-04-01 17:12:00,
2013-04-01 12:17:00,51.6,36.4,30.14,NE,45,3.0,8.0,56,0.00,,,0.00,Wunderground v.1.15,2013-04-01 17:17:00,
2013-04-01 12:22:00,52.0,35.9,30.14,NE,39,5.0,12.0,54,0.00,,,0.00,Wunderground v.1.15,2013-04-01 17:22:00,
2013-04-01 12:27:00,51.7,35.6,30.14,WNW,291,6.0,12.0,54,0.00,,,0.00,Wunderground v.1.15,2013-04-01 17:27:00,
2013-04-01 12:32:00,51.7,36.9,30.14,ENE,61,5.0,5.0,57,0.00,,,0.00,Wunderground v.1.15,2013-04-01 17:32:00,
2013-04-01 12:37:00,52.2,37.4,30.14,NW,321,1.0,8.0,57,0.00,,,0.00,Wunderground v.1.15,2013-04-01 17:37:00,
2013-04-01 12:42:00,52.5,35.8,30.14,NE,43,6.0,9.0,53,0.00,,,0.00,Wunderground v.1.15,2013-04-01 17:42:00,
2013-04-01 12:47:00,52.3,37.5,30.14,ENE,57,0.0,9.0,57,0.00,,,0.00,Wunderground v.1.15,2013-04-01 17:47:00,
2013-04-01 12:53:00,52.3,38.0,30.14,NE,34,4.0,6.0,58,0.00,,,0.00,Wunderground v.1.15,2013-04-01 17:53:00,
2013-04-01 12:58:00,52.6,36.9,30.14,NNE,25,5.0,10.0,55,0.00,,,0.00,Wunderground v.1.15,2013-04-01 17:58:00,
2013-04-01 13:03:00,53.2,38.8,30.14,NNW,342,5.0,10.0,58,0.00,,,0.00,Wunderground v.1.15,2013-04-01 18:03:00,
2013-04-01 13:08:00,53.8,39.4,30.14,NW,320,1.0,10.0,58,0.00,,,0.00,Wunderground v.1.15,2013-04-01 18:08:00,
2013-04-01 13:13:00,53.6,37.3,30.14,North,356,5.0,10.0,54,0.00,,,0.00,Wunderground v.1.15,2013-04-01 18:13:00,
2013-04-01 13:18:00,53.7,38.4,30.14,ENE,63,3.0,10.0,56,0.00,,,0.00,Wunderground v.1.15,2013-04-01 18:18:00,
2013-04-01 13:23:00,53.7,37.9,30.14,NE,50,4.0,10.0,55,0.00,,,0.00,Wunderground v.1.15,2013-04-01 18:23:00,
2013-04-01 13:28:00,53.9,38.1,30.14,NNE,23,5.0,10.0,55,0.00,,,0.00,Wunderground v.1.15,2013-04-01 18:28:00,
2013-04-01 13:33:00,54.2,37.9,30.14,NE,49,5.0,8.0,54,0.00,,,0.00,Wunderground v.1.15,2013-04-01 18:33:00,
2013-04-01 13:38:00,53.9,38.6,30.13,North,350,4.0,8.0,56,0.00,,,0.00,Wunderground v.1.15,2013-04-01 18:38:00,
2013-04-01 13:43:00,54.1,37.3,30.13,NW,323,3.0,11.0,53,0.00,,,0.00,Wunderground v.1.15,2013-04-01 18:43:00,
2013-04-01 13:48:00,54.3,38.5,30.14,NW,316,8.0,11.0,55,0.00,,,0.00,Wunderground v.1.15,2013-04-01 18:48:00,
2013-04-01 13:53:00,54.1,37.8,30.13,NW,323,5.0,7.0,54,0.00,,,0.00,Wunderground v.1.15,2013-04-01 18:53:00,
2013-04-01 13:58:00,54.6,38.3,30.13,NNW,330,3.0,7.0,54,0.00,,,0.00,Wunderground v.1.15,2013-04-01 18:58:00,
2013-04-01 14:03:00,54.2,37.9,30.13,NE,52,5.0,10.0,54,0.00,,,0.00,Wunderground v.1.15,2013-04-01 19:03:00,
2013-04-01 14:08:00,54.3,37.5,30.13,NW,323,5.0,11.0,53,0.00,,,0.00,Wunderground v.1.15,2013-04-01 19:08:00,
2013-04-01 14:13:00,54.0,37.2,30.13,NNW,333,4.0,11.0,53,0.00,,,0.00,Wunderground v.1.15,2013-04-01 19:13:00,
2013-04-01 14:18:00,54.3,38.0,30.13,NE,37,6.0,11.0,54,0.00,,,0.00,Wunderground v.1.15,2013-04-01 19:18:00,
2013-04-01 14:23:00,54.6,38.3,30.13,NNW,333,4.0,14.0,54,0.00,,,0.00,Wunderground v.1.15,2013-04-01 19:23:00,
2013-04-01 14:28:00,54.6,38.7,30.12,NE,49,10.0,14.0,55,0.00,,,0.00,Wunderground v.1.15,2013-04-01 19:28:00,
2013-04-01 14:33:00,54.5,37.2,30.12,NNW,328,4.0,8.0,52,0.00,,,0.00,Wunderground v.1.15,2013-04-01 19:33:00,
2013-04-01 14:38:00,54.5,38.2,30.12,NE,42,2.0,9.0,54,0.00,,,0.00,Wunderground v.1.15,2013-04-01 19:38:00,
2013-04-01 14:43:00,54.8,37.5,30.12,NNE,23,5.0,10.0,52,0.00,,,0.00,Wunderground v.1.15,2013-04-01 19:43:00,
2013-04-01 14:48:00,55.1,39.7,30.12,NW,311,6.0,10.0,56,0.00,,,0.00,Wunderground v.1.15,2013-04-01 19:48:00,
2013-04-01 14:53:00,55.5,38.1,30.12,NNW,335,3.0,9.0,52,0.00,,,0.00,Wunderground v.1.15,2013-04-01 19:53:00,
2013-04-01 14:58:00,54.8,38.9,30.12,NE,47,5.0,11.0,55,0.00,,,0.00,Wunderground v.1.15,2013-04-01 19:58:00,
2013-04-01 15:03:00,54.8,38.5,30.12,NE,41,5.0,11.0,54,0.00,,,0.00,Wunderground v.1.15,2013-04-01 20:03:00,
2013-04-01 15:08:00,55.2,37.9,30.12,NNW,333,3.0,11.0,52,0.00,,,0.00,Wunderground v.1.15,2013-04-01 20:08:00,
2013-04-01 15:13:00,55.4,37.1,30.12,NNW,328,2.0,9.0,50,0.00,,,0.00,Wunderground v.1.15,2013-04-01 20:13:00,
2013-04-01 15:18:00,55.6,37.7,30.12,North,6,6.0,9.0,51,0.00,,,0.00,Wunderground v.1.15,2013-04-01 20:18:00,
2013-04-01 15:23:00,55.0,36.2,30.12,North,8,11.0,13.0,49,0.00,,,0.00,Wunderground v.1.15,2013-04-01 20:23:00,
2013-04-01 15:28:00,55.0,36.2,30.12,NNW,332,6.0,13.0,49,0.00,,,0.00,Wunderground v.1.15,2013-04-01 20:28:00,
2013-04-01 15:33:00,55.5,38.6,30.12,NE,37,8.0,8.0,53,0.00,,,0.00,Wunderground v.1.15,2013-04-01 20:33:00,
2013-04-01 15:38:00,55.2,36.9,30.12,NW,316,6.0,8.0,50,0.00,,,0.00,Wunderground v.1.15,2013-04-01 20:38:00,
2013-04-01 15:43:00,55.5,37.1,30.13,ENE,65,6.0,10.0,50,0.00,,,0.00,Wunderground v.1.15,2013-04-01 20:43:00,
2013-04-01 15:48:00,55.5,37.1,30.13,NW,310,7.0,10.0,50,0.00,,,0.00,Wunderground v.1.15,2013-04-01 20:48:00,
2013-04-01 15:53:00,55.1,36.3,30.12,NE,44,6.0,8.0,49,0.00,,,0.00,Wunderground v.1.15,2013-04-01 20:53:00,
2013-04-01 15:58:00,55.7,36.8,30.13,NNW,335,6.0,12.0,49,0.00,,,0.00,Wunderground v.1.15,2013-04-01 20:58:00,
2013-04-01 16:03:00,55.4,36.5,30.13,NE,40,6.0,8.0,49,0.00,,,0.00,Wunderground v.1.15,2013-04-01 21:03:00,
2013-04-01 16:08:00,55.6,36.7,30.13,NNE,25,3.0,10.0,49,0.00,,,0.00,Wunderground v.1.15,2013-04-01 21:08:00,
2013-04-01 16:13:00,55.4,37.1,30.12,East,79,7.0,7.0,50,0.00,,,0.00,Wunderground v.1.15,2013-04-01 21:13:00,
2013-04-01 16:18:00,55.1,35.2,30.12,NW,310,11.0,11.0,47,0.00,,,0.00,Wunderground v.1.15,2013-04-01 21:18:00,
2013-04-01 16:23:00,54.6,33.7,30.13,NW,316,4.0,10.0,45,0.00,,,0.00,Wunderground v.1.15,2013-04-01 21:23:00,
2013-04-01 16:28:00,54.5,34.1,30.13,NNW,337,4.0,12.0,46,0.00,,,0.00,Wunderground v.1.15,2013-04-01 21:28:00,
2013-04-01 16:33:00,54.6,32.5,30.13,NNE,19,4.0,9.0,43,0.00,,,0.00,Wunderground v.1.15,2013-04-01 21:33:00,
2013-04-01 16:38:00,54.7,34.3,30.13,NW,318,6.0,9.0,46,0.00,,,0.00,Wunderground v.1.15,2013-04-01 21:38:00,
2013-04-01 16:43:00,54.6,33.1,30.13,NW,319,6.0,10.0,44,0.00,,,0.00,Wunderground v.1.15,2013-04-01 21:43:00,
2013-04-01 16:48:00,54.6,33.1,30.14,North,8,7.0,10.0,44,0.00,,,0.00,Wunderground v.1.15,2013-04-01 21:48:00,
2013-04-01 16:54:00,54.6,31.9,30.14,NW,326,4.0,7.0,42,0.00,,,0.00,Wunderground v.1.15,2013-04-01 21:54:00,
2013-04-01 16:59:00,54.3,32.3,30.14,NNW,337,3.0,8.0,43,0.00,,,0.00,Wunderground v.1.15,2013-04-01 21:59:00,
2013-04-01 17:04:00,54.4,31.8,30.14,NE,41,4.0,8.0,42,0.00,,,0.00,Wunderground v.1.15,2013-04-01 22:04:00,
2013-04-01 17:09:00,53.9,30.7,30.14,North,349,7.0,13.0,41,0.00,,,0.00,Wunderground v.1.15,2013-04-01 22:09:00,
2013-04-01 17:14:00,53.7,31.1,30.14,NNW,339,6.0,11.0,42,0.00,,,0.00,Wunderground v.1.15,2013-04-01 22:14:00,
2013-04-01 17:19:00,53.8,31.2,30.14,NE,43,5.0,11.0,42,0.00,,,0.00,Wunderground v.1.15,2013-04-01 22:19:00,
2013-04-01 17:24:00,53.8,30.0,30.14,NNW,343,4.0,10.0,40,0.00,,,0.00,Wunderground v.1.15,2013-04-01 22:24:00,
2013-04-01 17:29:00,53.7,30.5,30.14,NNW,334,4.0,10.0,41,0.00,,,0.00,Wunderground v.1.15,2013-04-01 22:29:00,
2013-04-01 17:34:00,53.7,29.9,30.14,NNW,338,6.0,9.0,40,0.00,,,0.00,Wunderground v.1.15,2013-04-01 22:34:00,
2013-04-01 17:39:00,53.4,30.3,30.14,NNE,30,3.0,9.0,41,0.00,,,0.00,Wunderground v.1.15,2013-04-01 22:39:00,
2013-04-01 17:44:00,53.2,28.9,30.14,NNW,330,4.0,14.0,39,0.00,,,0.00,Wunderground v.1.15,2013-04-01 22:44:00,
2013-04-01 17:49:00,53.1,30.6,30.14,NW,326,6.0,14.0,42,0.00,,,0.00,Wunderground v.1.15,2013-04-01 22:49:00,
2013-04-01 17:54:00,53.0,29.9,30.14,NNE,12,5.0,13.0,41,0.00,,,0.00,Wunderground v.1.15,2013-04-01 22:54:00,
2013-04-01 17:59:00,52.9,29.8,30.14,NNW,345,3.0,13.0,41,0.00,,,0.00,Wunderground v.1.15,2013-04-01 22:59:00,
2013-04-01 18:04:00,52.9,30.4,30.14,NW,318,4.0,9.0,42,0.00,,,0.00,Wunderground v.1.15,2013-04-01 23:04:00,
2013-04-01 18:09:00,52.7,30.2,30.14,NNW,332,4.0,10.0,42,0.00,,,0.00,Wunderground v.1.15,2013-04-01 23:09:00,
2013-04-01 18:14:00,52.4,28.8,30.14,NNE,22,3.0,8.0,40,0.00,,,0.00,Wunderground v.1.15,2013-04-01 23:14:00,
2013-04-01 18:19:00,52.3,28.7,30.14,NE,50,3.0,8.0,40,0.00,,,0.00,Wunderground v.1.15,2013-04-01 23:19:00,
2013-04-01 18:24:00,52.0,29.6,30.14,NW,319,2.0,6.0,42,0.00,,,0.00,Wunderground v.1.15,2013-04-01 23:24:00,
2013-04-01 18:29:00,51.7,29.9,30.14,NNW,348,1.0,7.0,43,0.00,,,0.00,Wunderground v.1.15,2013-04-01 23:29:00,
2013-04-01 18:34:00,51.3,29.5,30.14,North,359,2.0,6.0,43,0.00,,,0.00,Wunderground v.1.15,2013-04-01 23:34:00,
2013-04-01 18:39:00,51.2,28.9,30.14,ENE,74,4.0,7.0,42,0.00,,,0.00,Wunderground v.1.15,2013-04-01 23:39:00,
2013-04-01 18:44:00,50.8,27.9,30.15,NE,34,3.0,8.0,41,0.00,,,0.00,Wunderground v.1.15,2013-04-01 23:44:00,
2013-04-01 18:49:00,50.5,28.8,30.15,NE,41,4.0,9.0,43,0.00,,,0.00,Wunderground v.1.15,2013-04-01 23:49:00,
2013-04-01 18:54:00,50.2,29.7,30.15,NW,324,1.0,5.0,45,0.00,,,0.00,Wunderground v.1.15,2013-04-01 23:54:00,
2013-04-01 18:59:00,49.6,29.1,30.14,NE,53,2.0,5.0,45,0.00,,,0.00,Wunderground v.1.15,2013-04-01 23:59:00,
2013-04-01 19:04:00,49.1,28.7,30.14,ENE,62,3.0,8.0,45,0.00,,,0.00,Wunderground v.1.15,2013-04-02 00:04:00,
2013-04-01 19:09:00,48.7,28.8,30.15,ENE,60,4.0,8.0,46,0.00,,,0.00,Wunderground v.1.15,2013-04-02 00:09:00,
2013-04-01 19:14:00,48.3,27.9,30.15,NNE,26,2.0,8.0,45,0.00,,,0.00,Wunderground v.1.15,2013-04-02 00:14:00,
2013-04-01 19:19:00,48.1,28.8,30.15,NNW,342,2.0,8.0,47,0.00,,,0.00,Wunderground v.1.15,2013-04-02 00:19:00,
2013-04-01 19:24:00,47.6,28.9,30.15,NNW,335,2.0,5.0,48,0.00,,,0.00,Wunderground v.1.15,2013-04-02 00:24:00,
2013-04-01 19:29:00,47.3,28.1,30.14,NE,41,7.0,7.0,47,0.00,,,0.00,Wunderground v.1.15,2013-04-02 00:29:00,
2013-04-01 19:34:00,47.3,28.6,30.14,NE,40,2.0,6.0,48,0.00,,,0.00,Wunderground v.1.15,2013-04-02 00:34:00,
2013-04-01 19:39:00,47.2,28.0,30.15,NE,51,6.0,7.0,47,0.00,,,0.00,Wunderground v.1.15,2013-04-02 00:39:00,
2013-04-01 19:44:00,47.0,28.3,30.15,ENE,58,5.0,6.0,48,0.00,,,0.00,Wunderground v.1.15,2013-04-02 00:44:00,
2013-04-01 19:49:00,46.7,28.0,30.15,NE,53,4.0,7.0,48,0.00,,,0.00,Wunderground v.1.15,2013-04-02 00:49:00,
2013-04-01 19:54:00,46.4,28.3,30.15,NE,48,6.0,6.0,49,0.00,,,0.00,Wunderground v.1.15,2013-04-02 00:54:00,
2013-04-01 19:59:00,46.2,28.1,30.15,NW,323,1.0,6.0,49,0.00,,,0.00,Wunderground v.1.15,2013-04-02 00:59:00,
2013-04-01 20:04:00,45.9,28.8,30.15,NE,51,1.0,4.0,51,0.00,,,0.00,Wunderground v.1.15,2013-04-02 01:04:00,
2013-04-01 20:09:00,45.7,28.1,30.16,NE,40,2.0,7.0,50,0.00,,,0.00,Wunderground v.1.15,2013-04-02 01:09:00,
2013-04-01 20:14:00,45.5,27.9,30.16,NE,56,2.0,3.0,50,0.00,,,0.00,Wunderground v.1.15,2013-04-02 01:14:00,
2013-04-01 20:19:00,45.4,27.8,30.16,NE,42,2.0,4.0,50,0.00,,,0.00,Wunderground v.1.15,2013-04-02 01:19:00,
2013-04-01 20:24:00,45.3,28.2,30.16,NE,56,1.0,3.0,51,0.00,,,0.00,Wunderground v.1.15,2013-04-02 01:24:00,
2013-04-01 20:29:00,45.1,28.0,30.16,NE,40,1.0,3.0,51,0.00,,,0.00,Wunderground v.1.15,2013-04-02 01:29:00,
2013-04-01 20:34:00,45.0,28.4,30.17,NE,40,0.0,2.0,52,0.00,,,0.00,Wunderground v.1.15,2013-04-02 01:34:00,
2013-04-01 20:39:00,44.8,28.2,30.17,NE,53,1.0,2.0,52,0.00,,,0.00,Wunderground v.1.15,2013-04-02 01:39:00,
2013-04-01 20:44:00,44.8,27.8,30.17,NE,49,3.0,7.0,51,0.00,,,0.00,Wunderground v.1.15,2013-04-02 01:44:00,
2013-04-01 20:49:00,44.7,28.6,30.17,NE,51,3.0,7.0,53,0.00,,,0.00,Wunderground v.1.15,2013-04-02 01:49:00,
2013-04-01 20:54:00,44.6,28.5,30.17,NNE,33,5.0,5.0,53,0.00,,,0.00,Wunderground v.1.15,2013-04-02 01:54:00,
2013-04-01 20:59:00,44.5,28.4,30.17,NW,309,1.0,6.0,53,0.00,,,0.00,Wunderground v.1.15,2013-04-02 01:59:00,
2013-04-01 21:04:00,44.3,28.2,30.17,NE,43,3.0,4.0,53,0.00,,,0.00,Wunderground v.1.15,2013-04-02 02:04:00,
2013-04-01 21:09:00,44.2,28.1,30.17,NE,50,3.0,7.0,53,0.00,,,0.00,Wunderground v.1.15,2013-04-02 02:09:00,
2013-04-01 21:14:00,44.3,28.7,30.17,NE,47,4.0,7.0,54,0.00,,,0.00,Wunderground v.1.15,2013-04-02 02:14:00,
2013-04-01 21:20:00,44.1,28.9,30.18,NE,56,2.0,7.0,55,0.00,,,0.00,Wunderground v.1.15,2013-04-02 02:20:00,
2013-04-01 21:25:00,44.0,28.4,30.18,NE,47,4.0,5.0,54,0.00,,,0.00,Wunderground v.1.15,2013-04-02 02:25:00,
2013-04-01 21:30:00,43.7,28.1,30.18,NE,47,4.0,6.0,54,0.00,,,0.00,Wunderground v.1.15,2013-04-02 02:30:00,
2013-04-01 21:35:00,43.5,27.5,30.18,NE,56,4.0,6.0,53,0.00,,,0.00,Wunderground v.1.15,2013-04-02 02:35:00,
2013-04-01 21:40:00,43.4,27.4,30.18,NE,49,4.0,4.0,53,0.00,,,0.00,Wunderground v.1.15,2013-04-02 02:40:00,
2013-04-01 21:45:00,43.3,27.3,30.18,NE,43,3.0,6.0,53,0.00,,,0.00,Wunderground v.1.15,2013-04-02 02:45:00,
2013-04-01 21:50:00,43.1,27.6,30.18,ENE,71,2.0,3.0,54,0.00,,,0.00,Wunderground v.1.15,2013-04-02 02:50:00,
2013-04-01 21:55:00,43.1,27.6,30.18,NE,53,3.0,5.0,54,0.00,,,0.00,Wunderground v.1.15,2013-04-02 02:55:00,
2013-04-01 22:00:00,42.9,27.4,30.18,ENE,63,2.0,2.0,54,0.00,,,0.00,Wunderground v.1.15,2013-04-02 03:00:00,
2013-04-01 22:05:00,42.7,27.2,30.19,NE,44,2.0,3.0,54,0.00,,,0.00,Wunderground v.1.15,2013-04-02 03:05:00,
2013-04-01 22:10:00,42.5,27.9,30.19,NE,43,0.0,2.0,56,0.00,,,0.00,Wunderground v.1.15,2013-04-02 03:10:00,
2013-04-01 22:16:00,42.4,26.9,30.19,NNE,26,2.0,4.0,54,0.00,,,0.00,Wunderground v.1.15,2013-04-02 03:16:00,
2013-04-01 22:21:00,42.3,27.7,30.19,NE,44,0.0,2.0,56,0.00,,,0.00,Wunderground v.1.15,2013-04-02 03:21:00,
2013-04-01 22:26:00,42.2,27.2,30.19,NE,44,2.0,4.0,55,0.00,,,0.00,Wunderground v.1.15,2013-04-02 03:26:00,
2013-04-01 22:31:00,42.1,27.1,30.19,East,90,1.0,3.0,55,0.00,,,0.00,Wunderground v.1.15,2013-04-02 03:31:00,
2013-04-01 22:36:00,41.9,26.9,30.19,ENE,58,1.0,3.0,55,0.00,,,0.00,Wunderground v.1.15,2013-04-02 03:36:00,
2013-04-01 22:41:00,41.7,27.1,30.19,ENE,60,1.0,2.0,56,0.00,,,0.00,Wunderground v.1.15,2013-04-02 03:41:00,
2013-04-01 22:46:00,41.5,27.8,30.20,NE,56,0.0,2.0,58,0.00,,,0.00,Wunderground v.1.15,2013-04-02 03:46:00,
2013-04-01 22:51:00,41.1,27.4,30.19,NE,49,2.0,2.0,58,0.00,,,0.00,Wunderground v.1.15,2013-04-02 03:51:00,
2013-04-01 22:56:00,41.2,27.5,30.20,NE,49,0.0,2.0,58,0.00,,,0.00,Wunderground v.1.15,2013-04-02 03:56:00,
2013-04-01 23:00:00,40.9,27.7,30.20,NE,48,0.0,2.0,59,0.00,,,0.00,Wunderground v.1.15,2013-04-02 04:00:00,
2013-04-01 23:05:00,40.3,27.9,30.20,NE,47,0.0,1.0,61,0.00,,,0.00,Wunderground v.1.15,2013-04-02 04:05:00,
2013-04-01 23:10:00,39.4,28.2,30.20,NE,47,0.0,0.0,64,0.00,,,0.00,Wunderground v.1.15,2013-04-02 04:10:00,
2013-04-01 23:15:00,38.7,27.9,30.20,NE,46,0.0,0.0,65,0.00,,,0.00,Wunderground v.1.15,2013-04-02 04:15:00,
2013-04-01 23:20:00,38.2,28.2,30.20,NE,46,0.0,0.0,67,0.00,,,0.00,Wunderground v.1.15,2013-04-02 04:20:00,
2013-04-01 23:25:00,37.9,28.3,30.20,NE,46,0.0,0.0,68,0.00,,,0.00,Wunderground v.1.15,2013-04-02 04:25:00,
2013-04-01 23:30:00,37.4,27.8,30.20,NE,47,0.0,0.0,68,0.00,,,0.00,Wunderground v.1.15,2013-04-02 04:30:00,
2013-04-01 23:35:00,37.2,28.3,30.20,NE,46,1.0,1.0,70,0.00,,,0.00,Wunderground v.1.15,2013-04-02 04:35:00,
2013-04-01 23:40:00,37.8,27.8,30.20,NE,46,1.0,1.0,67,0.00,,,0.00,Wunderground v.1.15,2013-04-02 04:40:00,
2013-04-01 23:45:00,38.6,27.8,30.20,NE,46,0.0,1.0,65,0.00,,,0.00,Wunderground v.1.15,2013-04-02 04:45:00,
2013-04-01 23:50:00,38.5,28.1,30.20,NE,46,0.0,0.0,66,0.00,,,0.00,Wunderground v.1.15,2013-04-02 04:50:00,
2013-04-01 23:55:00,38.1,28.1,30.20,NE,46,0.0,0.0,67,0.00,,,0.00,Wunderground v.1.15,2013-04-02 04:55:00,